sensor_id;sensor_type;location;lat;lon;timestamp;P1;durP1;ratioP1;P2;durP2;ratioP2
64738;SDS011;51175;51.186;0.276;2022-10-17T00:00:10;57.35;;;39.17;;
64738;SDS011;51175;51.186;0.276;2022-10-17T00:00:41;62.25;;;40.72;;
64738;SDS011;51175;51.186;0.276;2022-10-17T00:01:12;66.07;;;41.05;;
64738;SDS011;51175;51.186;0.276;2022-10-17T00:01:42;64.85;;;42.33;;
64738;SDS011;51175;51.186;0.276;2022-10-17T00:02:13;55.05;;;38.15;;
64738;SDS011;51175;51.186;0.276;2022-10-17T00:02:43;63.00;;;39.00;;
64738;SDS011;51175;51.186;0.276;2022-10-17T00:03:13;60.17;;;39.35;;
64738;SDS011;51175;51.186;0.276;2022-10-17T00:03:44;54.65;;;39.15;;
64738;SDS011;51175;51.186;0.276;2022-10-17T00:04:14;58.88;;;39.38;;
64738;SDS011;51175;51.186;0.276;2022-10-17T00:04:45;56.72;;;39.53;;
64738;SDS011;51175;51.186;0.276;2022-10-17T00:05:15;65.03;;;42.83;;
64738;SDS011;51175;51.186;0.276;2022-10-17T00:05:46;62.03;;;40.53;;
64738;SDS011;51175;51.186;0.276;2022-10-17T00:06:17;60.53;;;40.13;;
64738;SDS011;51175;51.186;0.276;2022-10-17T00:06:48;60.63;;;39.78;;
64738;SDS011;51175;51.186;0.276;2022-10-17T00:07:18;58.88;;;37.65;;
64738;SDS011;51175;51.186;0.276;2022-10-17T00:07:48;61.65;;;42.30;;
64738;SDS011;51175;51.186;0.276;2022-10-17T00:08:19;63.78;;;40.58;;
64738;SDS011;51175;51.186;0.276;2022-10-17T00:08:50;63.47;;;40.75;;
64738;SDS011;51175;51.186;0.276;2022-10-17T00:09:20;61.10;;;40.47;;
64738;SDS011;51175;51.186;0.276;2022-10-17T00:09:50;62.58;;;41.08;;
64738;SDS011;51175;51.186;0.276;2022-10-17T00:10:21;65.20;;;45.22;;
64738;SDS011;51175;51.186;0.276;2022-10-17T00:11:05;66.20;;;42.20;;
64738;SDS011;51175;51.186;0.276;2022-10-17T00:11:38;57.97;;;40.72;;
64738;SDS011;51175;51.186;0.276;2022-10-17T00:12:08;58.05;;;37.92;;
64738;SDS011;51175;51.186;0.276;2022-10-17T00:12:39;58.65;;;39.20;;
64738;SDS011;51175;51.186;0.276;2022-10-17T00:13:09;59.10;;;36.72;;
64738;SDS011;51175;51.186;0.276;2022-10-17T00:13:40;57.67;;;38.20;;
64738;SDS011;51175;51.186;0.276;2022-10-17T00:14:11;55.50;;;38.90;;
64738;SDS011;51175;51.186;0.276;2022-10-17T00:14:41;58.13;;;39.65;;
64738;SDS011;51175;51.186;0.276;2022-10-17T00:15:16;70.05;;;47.22;;
64738;SDS011;51175;51.186;0.276;2022-10-17T00:15:48;69.03;;;46.17;;
64738;SDS011;51175;51.186;0.276;2022-10-17T00:16:22;65.32;;;42.67;;
64738;SDS011;51175;51.186;0.276;2022-10-17T00:17:05;62.60;;;40.67;;
64738;SDS011;51175;51.186;0.276;2022-10-17T00:17:35;64.25;;;43.45;;
64738;SDS011;51175;51.186;0.276;2022-10-17T00:18:07;62.13;;;40.55;;
64738;SDS011;51175;51.186;0.276;2022-10-17T00:18:37;61.75;;;40.15;;
64738;SDS011;51175;51.186;0.276;2022-10-17T00:19:08;60.25;;;40.08;;
64738;SDS011;51175;51.186;0.276;2022-10-17T00:19:38;61.63;;;41.65;;
64738;SDS011;51175;51.186;0.276;2022-10-17T00:20:08;69.32;;;45.97;;
64738;SDS011;51175;51.186;0.276;2022-10-17T00:20:39;67.70;;;43.60;;
64738;SDS011;51175;51.186;0.276;2022-10-17T00:21:16;71.35;;;45.65;;
64738;SDS011;51175;51.186;0.276;2022-10-17T00:21:48;65.90;;;43.33;;
64738;SDS011;51175;51.186;0.276;2022-10-17T00:22:18;67.53;;;44.72;;
64738;SDS011;51175;51.186;0.276;2022-10-17T00:22:49;64.63;;;43.42;;
64738;SDS011;51175;51.186;0.276;2022-10-17T00:23:19;65.55;;;43.50;;
64738;SDS011;51175;51.186;0.276;2022-10-17T00:23:50;68.22;;;45.67;;
64738;SDS011;51175;51.186;0.276;2022-10-17T00:24:21;64.47;;;41.75;;
64738;SDS011;51175;51.186;0.276;2022-10-17T00:24:51;70.70;;;47.80;;
64738;SDS011;51175;51.186;0.276;2022-10-17T00:25:21;72.75;;;48.53;;
64738;SDS011;51175;51.186;0.276;2022-10-17T00:25:59;77.90;;;51.97;;
64738;SDS011;51175;51.186;0.276;2022-10-17T00:26:30;73.07;;;48.03;;
64738;SDS011;51175;51.186;0.276;2022-10-17T00:27:01;75.85;;;47.22;;
64738;SDS011;51175;51.186;0.276;2022-10-17T00:27:35;75.03;;;48.45;;
64738;SDS011;51175;51.186;0.276;2022-10-17T00:28:11;74.47;;;47.30;;
64738;SDS011;51175;51.186;0.276;2022-10-17T00:28:44;71.47;;;46.20;;
64738;SDS011;51175;51.186;0.276;2022-10-17T00:29:16;79.00;;;53.45;;
64738;SDS011;51175;51.186;0.276;2022-10-17T00:29:47;75.63;;;48.22;;
64738;SDS011;51175;51.186;0.276;2022-10-17T00:30:19;77.68;;;50.90;;
64738;SDS011;51175;51.186;0.276;2022-10-17T00:30:59;73.85;;;48.38;;
64738;SDS011;51175;51.186;0.276;2022-10-17T00:31:32;71.63;;;46.63;;
64738;SDS011;51175;51.186;0.276;2022-10-17T00:32:02;73.32;;;48.40;;
64738;SDS011;51175;51.186;0.276;2022-10-17T00:32:33;68.68;;;46.30;;
64738;SDS011;51175;51.186;0.276;2022-10-17T00:33:03;76.20;;;49.85;;
64738;SDS011;51175;51.186;0.276;2022-10-17T00:33:34;65.00;;;43.53;;
64738;SDS011;51175;51.186;0.276;2022-10-17T00:34:05;79.60;;;50.47;;
64738;SDS011;51175;51.186;0.276;2022-10-17T00:34:35;82.78;;;55.80;;
64738;SDS011;51175;51.186;0.276;2022-10-17T00:35:06;81.25;;;56.22;;
64738;SDS011;51175;51.186;0.276;2022-10-17T00:35:37;77.03;;;50.35;;
64738;SDS011;51175;51.186;0.276;2022-10-17T00:36:09;72.18;;;48.53;;
64738;SDS011;51175;51.186;0.276;2022-10-17T00:36:41;73.20;;;47.42;;
64738;SDS011;51175;51.186;0.276;2022-10-17T00:37:11;74.05;;;50.63;;
64738;SDS011;51175;51.186;0.276;2022-10-17T00:37:42;70.63;;;48.92;;
64738;SDS011;51175;51.186;0.276;2022-10-17T00:38:12;69.80;;;46.72;;
64738;SDS011;51175;51.186;0.276;2022-10-17T00:38:43;86.63;;;56.28;;
64738;SDS011;51175;51.186;0.276;2022-10-17T00:39:15;74.60;;;50.10;;
64738;SDS011;51175;51.186;0.276;2022-10-17T00:39:45;78.03;;;48.10;;
64738;SDS011;51175;51.186;0.276;2022-10-17T00:40:16;77.32;;;53.22;;
64738;SDS011;51175;51.186;0.276;2022-10-17T00:40:46;71.00;;;49.03;;
64738;SDS011;51175;51.186;0.276;2022-10-17T00:41:17;74.63;;;49.97;;
64738;SDS011;51175;51.186;0.276;2022-10-17T00:41:49;77.53;;;51.40;;
64738;SDS011;51175;51.186;0.276;2022-10-17T00:42:20;74.28;;;49.30;;
64738;SDS011;51175;51.186;0.276;2022-10-17T00:42:51;76.80;;;49.92;;
64738;SDS011;51175;51.186;0.276;2022-10-17T00:43:22;74.25;;;50.17;;
64738;SDS011;51175;51.186;0.276;2022-10-17T00:43:54;73.38;;;52.20;;
64738;SDS011;51175;51.186;0.276;2022-10-17T00:45:33;73.50;;;46.97;;
64738;SDS011;51175;51.186;0.276;2022-10-17T00:46:04;76.22;;;49.60;;
64738;SDS011;51175;51.186;0.276;2022-10-17T00:46:35;75.28;;;50.33;;
64738;SDS011;51175;51.186;0.276;2022-10-17T00:47:10;72.45;;;48.00;;
64738;SDS011;51175;51.186;0.276;2022-10-17T00:48:09;74.38;;;50.00;;
64738;SDS011;51175;51.186;0.276;2022-10-17T00:48:40;75.28;;;49.38;;
64738;SDS011;51175;51.186;0.276;2022-10-17T00:49:11;79.30;;;52.22;;
64738;SDS011;51175;51.186;0.276;2022-10-17T00:49:41;76.15;;;52.40;;
64738;SDS011;51175;51.186;0.276;2022-10-17T00:50:12;72.57;;;48.53;;
64738;SDS011;51175;51.186;0.276;2022-10-17T00:50:43;72.57;;;47.63;;
64738;SDS011;51175;51.186;0.276;2022-10-17T00:51:18;74.40;;;49.60;;
64738;SDS011;51175;51.186;0.276;2022-10-17T00:51:53;77.85;;;51.95;;
64738;SDS011;51175;51.186;0.276;2022-10-17T00:52:27;80.07;;;51.08;;
64738;SDS011;51175;51.186;0.276;2022-10-17T00:53:00;86.25;;;56.75;;
64738;SDS011;51175;51.186;0.276;2022-10-17T00:53:33;74.50;;;48.72;;
64738;SDS011;51175;51.186;0.276;2022-10-17T00:54:05;80.53;;;55.85;;
64738;SDS011;51175;51.186;0.276;2022-10-17T00:54:39;77.28;;;51.30;;
64738;SDS011;51175;51.186;0.276;2022-10-17T00:55:16;75.38;;;50.25;;
64738;SDS011;51175;51.186;0.276;2022-10-17T00:55:50;76.97;;;50.97;;
64738;SDS011;51175;51.186;0.276;2022-10-17T00:56:22;67.60;;;46.25;;
64738;SDS011;51175;51.186;0.276;2022-10-17T00:56:52;75.93;;;49.45;;
64738;SDS011;51175;51.186;0.276;2022-10-17T00:57:24;71.38;;;49.00;;
64738;SDS011;51175;51.186;0.276;2022-10-17T00:57:57;78.13;;;50.83;;
64738;SDS011;51175;51.186;0.276;2022-10-17T00:58:31;78.97;;;51.85;;
64738;SDS011;51175;51.186;0.276;2022-10-17T00:59:01;75.88;;;51.38;;
64738;SDS011;51175;51.186;0.276;2022-10-17T00:59:32;76.60;;;51.20;;
64738;SDS011;51175;51.186;0.276;2022-10-17T01:00:06;77.38;;;51.83;;
64738;SDS011;51175;51.186;0.276;2022-10-17T01:00:39;79.47;;;50.42;;
64738;SDS011;51175;51.186;0.276;2022-10-17T01:01:10;75.95;;;50.63;;
64738;SDS011;51175;51.186;0.276;2022-10-17T01:01:41;75.78;;;49.47;;
64738;SDS011;51175;51.186;0.276;2022-10-17T01:02:16;74.95;;;47.92;;
64738;SDS011;51175;51.186;0.276;2022-10-17T01:02:48;75.28;;;49.15;;
64738;SDS011;51175;51.186;0.276;2022-10-17T01:03:18;70.40;;;47.28;;
64738;SDS011;51175;51.186;0.276;2022-10-17T01:03:49;80.95;;;51.28;;
64738;SDS011;51175;51.186;0.276;2022-10-17T01:04:19;73.78;;;49.28;;
64738;SDS011;51175;51.186;0.276;2022-10-17T01:04:50;70.55;;;49.88;;
64738;SDS011;51175;51.186;0.276;2022-10-17T01:05:24;68.95;;;46.72;;
64738;SDS011;51175;51.186;0.276;2022-10-17T01:05:55;71.03;;;47.33;;
64738;SDS011;51175;51.186;0.276;2022-10-17T01:06:26;68.93;;;47.30;;
64738;SDS011;51175;51.186;0.276;2022-10-17T01:06:56;69.03;;;46.67;;
64738;SDS011;51175;51.186;0.276;2022-10-17T01:07:27;70.00;;;47.63;;
64738;SDS011;51175;51.186;0.276;2022-10-17T01:07:58;73.43;;;48.97;;
64738;SDS011;51175;51.186;0.276;2022-10-17T01:08:29;72.90;;;49.30;;
64738;SDS011;51175;51.186;0.276;2022-10-17T01:09:00;70.30;;;46.17;;
64738;SDS011;51175;51.186;0.276;2022-10-17T01:09:30;71.18;;;47.90;;
64738;SDS011;51175;51.186;0.276;2022-10-17T01:10:01;68.97;;;48.03;;
64738;SDS011;51175;51.186;0.276;2022-10-17T01:10:39;69.13;;;45.90;;
64738;SDS011;51175;51.186;0.276;2022-10-17T01:12:31;76.78;;;48.80;;
64738;SDS011;51175;51.186;0.276;2022-10-17T01:14:07;65.70;;;44.72;;
64738;SDS011;51175;51.186;0.276;2022-10-17T01:16:42;71.80;;;44.88;;
64738;SDS011;51175;51.186;0.276;2022-10-17T01:17:24;66.38;;;44.03;;
64738;SDS011;51175;51.186;0.276;2022-10-17T01:19:11;70.03;;;44.53;;
64738;SDS011;51175;51.186;0.276;2022-10-17T01:19:58;65.68;;;45.22;;
64738;SDS011;51175;51.186;0.276;2022-10-17T01:26:03;64.13;;;40.42;;
64738;SDS011;51175;51.186;0.276;2022-10-17T01:27:01;65.43;;;43.83;;
64738;SDS011;51175;51.186;0.276;2022-10-17T01:27:47;60.75;;;41.42;;
64738;SDS011;51175;51.186;0.276;2022-10-17T01:30:51;63.10;;;40.42;;
64738;SDS011;51175;51.186;0.276;2022-10-17T01:31:27;59.40;;;40.67;;
64738;SDS011;51175;51.186;0.276;2022-10-17T01:32:08;66.68;;;42.85;;
64738;SDS011;51175;51.186;0.276;2022-10-17T01:33:36;60.05;;;40.08;;
64738;SDS011;51175;51.186;0.276;2022-10-17T01:34:59;64.45;;;43.15;;
64738;SDS011;51175;51.186;0.276;2022-10-17T01:35:39;62.90;;;40.45;;
64738;SDS011;51175;51.186;0.276;2022-10-17T01:37:32;57.08;;;38.35;;
64738;SDS011;51175;51.186;0.276;2022-10-17T01:39:00;63.95;;;41.22;;
64738;SDS011;51175;51.186;0.276;2022-10-17T01:40:59;57.25;;;39.55;;
64738;SDS011;51175;51.186;0.276;2022-10-17T01:42:18;58.22;;;37.97;;
64738;SDS011;51175;51.186;0.276;2022-10-17T01:43:04;59.50;;;37.60;;
64738;SDS011;51175;51.186;0.276;2022-10-17T01:45:39;62.08;;;39.70;;
64738;SDS011;51175;51.186;0.276;2022-10-17T01:46:23;56.50;;;36.90;;
64738;SDS011;51175;51.186;0.276;2022-10-17T01:47:02;60.15;;;39.00;;
64738;SDS011;51175;51.186;0.276;2022-10-17T01:47:36;57.50;;;37.83;;
64738;SDS011;51175;51.186;0.276;2022-10-17T01:48:13;63.22;;;38.53;;
64738;SDS011;51175;51.186;0.276;2022-10-17T01:48:51;57.35;;;38.58;;
64738;SDS011;51175;51.186;0.276;2022-10-17T01:49:23;52.50;;;35.55;;
64738;SDS011;51175;51.186;0.276;2022-10-17T01:50:00;59.05;;;39.08;;
64738;SDS011;51175;51.186;0.276;2022-10-17T01:50:37;54.20;;;39.20;;
64738;SDS011;51175;51.186;0.276;2022-10-17T01:51:16;57.45;;;37.25;;
64738;SDS011;51175;51.186;0.276;2022-10-17T01:51:53;60.30;;;39.28;;
64738;SDS011;51175;51.186;0.276;2022-10-17T01:52:43;54.65;;;37.33;;
64738;SDS011;51175;51.186;0.276;2022-10-17T01:53:21;52.80;;;35.47;;
64738;SDS011;51175;51.186;0.276;2022-10-17T01:53:58;58.58;;;39.28;;
64738;SDS011;51175;51.186;0.276;2022-10-17T01:54:38;57.15;;;39.25;;
64738;SDS011;51175;51.186;0.276;2022-10-17T01:55:30;54.30;;;34.80;;
64738;SDS011;51175;51.186;0.276;2022-10-17T01:56:05;57.53;;;36.42;;
64738;SDS011;51175;51.186;0.276;2022-10-17T01:56:38;52.88;;;36.80;;
64738;SDS011;51175;51.186;0.276;2022-10-17T01:57:12;51.88;;;35.88;;
64738;SDS011;51175;51.186;0.276;2022-10-17T01:57:55;53.83;;;36.95;;
64738;SDS011;51175;51.186;0.276;2022-10-17T01:58:34;55.83;;;36.30;;
64738;SDS011;51175;51.186;0.276;2022-10-17T01:59:13;53.03;;;36.33;;
64738;SDS011;51175;51.186;0.276;2022-10-17T01:59:48;55.40;;;37.33;;
64738;SDS011;51175;51.186;0.276;2022-10-17T02:00:23;50.58;;;36.13;;
64738;SDS011;51175;51.186;0.276;2022-10-17T02:00:56;55.08;;;36.40;;
64738;SDS011;51175;51.186;0.276;2022-10-17T02:01:30;52.10;;;35.53;;
64738;SDS011;51175;51.186;0.276;2022-10-17T02:02:01;50.60;;;35.72;;
64738;SDS011;51175;51.186;0.276;2022-10-17T02:02:32;50.80;;;34.08;;
64738;SDS011;51175;51.186;0.276;2022-10-17T02:03:05;50.05;;;35.47;;
64738;SDS011;51175;51.186;0.276;2022-10-17T02:03:39;51.58;;;36.17;;
64738;SDS011;51175;51.186;0.276;2022-10-17T02:04:12;52.42;;;35.78;;
64738;SDS011;51175;51.186;0.276;2022-10-17T02:04:43;51.20;;;36.72;;
64738;SDS011;51175;51.186;0.276;2022-10-17T02:05:16;54.08;;;35.33;;
64738;SDS011;51175;51.186;0.276;2022-10-17T02:05:49;49.15;;;34.75;;
64738;SDS011;51175;51.186;0.276;2022-10-17T02:06:19;55.50;;;37.47;;
64738;SDS011;51175;51.186;0.276;2022-10-17T02:06:49;48.85;;;34.53;;
64738;SDS011;51175;51.186;0.276;2022-10-17T02:07:20;50.83;;;35.85;;
64738;SDS011;51175;51.186;0.276;2022-10-17T02:07:50;51.67;;;36.30;;
64738;SDS011;51175;51.186;0.276;2022-10-17T02:08:25;48.58;;;36.33;;
64738;SDS011;51175;51.186;0.276;2022-10-17T02:09:28;49.72;;;35.88;;
64738;SDS011;51175;51.186;0.276;2022-10-17T02:09:59;49.97;;;34.75;;
64738;SDS011;51175;51.186;0.276;2022-10-17T02:10:38;54.97;;;35.92;;
64738;SDS011;51175;51.186;0.276;2022-10-17T02:11:14;48.13;;;33.42;;
64738;SDS011;51175;51.186;0.276;2022-10-17T02:14:36;54.83;;;36.20;;
64738;SDS011;51175;51.186;0.276;2022-10-17T02:17:32;54.15;;;34.90;;
64738;SDS011;51175;51.186;0.276;2022-10-17T02:18:12;49.05;;;34.08;;
64738;SDS011;51175;51.186;0.276;2022-10-17T02:19:10;46.00;;;32.28;;
64738;SDS011;51175;51.186;0.276;2022-10-17T02:19:57;49.60;;;32.45;;
64738;SDS011;51175;51.186;0.276;2022-10-17T02:20:50;47.03;;;31.98;;
64738;SDS011;51175;51.186;0.276;2022-10-17T02:21:26;50.67;;;32.70;;
64738;SDS011;51175;51.186;0.276;2022-10-17T02:22:15;53.17;;;34.50;;
64738;SDS011;51175;51.186;0.276;2022-10-17T02:24:24;44.67;;;31.30;;
64738;SDS011;51175;51.186;0.276;2022-10-17T02:25:09;43.05;;;31.60;;
64738;SDS011;51175;51.186;0.276;2022-10-17T02:25:51;49.45;;;30.55;;
64738;SDS011;51175;51.186;0.276;2022-10-17T02:26:29;50.38;;;33.83;;
64738;SDS011;51175;51.186;0.276;2022-10-17T02:28:30;44.40;;;30.55;;
64738;SDS011;51175;51.186;0.276;2022-10-17T02:29:55;45.08;;;29.90;;
64738;SDS011;51175;51.186;0.276;2022-10-17T02:31:20;44.63;;;30.63;;
64738;SDS011;51175;51.186;0.276;2022-10-17T02:31:40;43.72;;;30.75;;
64738;SDS011;51175;51.186;0.276;2022-10-17T02:32:20;42.67;;;30.88;;
64738;SDS011;51175;51.186;0.276;2022-10-17T02:32:59;43.83;;;29.85;;
64738;SDS011;51175;51.186;0.276;2022-10-17T02:33:46;46.47;;;31.52;;
64738;SDS011;51175;51.186;0.276;2022-10-17T02:34:25;44.63;;;30.40;;
64738;SDS011;51175;51.186;0.276;2022-10-17T02:34:59;48.47;;;33.15;;
64738;SDS011;51175;51.186;0.276;2022-10-17T02:35:34;45.30;;;30.77;;
64738;SDS011;51175;51.186;0.276;2022-10-17T02:36:12;45.92;;;32.33;;
64738;SDS011;51175;51.186;0.276;2022-10-17T02:36:51;45.47;;;30.30;;
64738;SDS011;51175;51.186;0.276;2022-10-17T02:37:26;45.60;;;31.80;;
64738;SDS011;51175;51.186;0.276;2022-10-17T02:37:57;43.03;;;29.27;;
64738;SDS011;51175;51.186;0.276;2022-10-17T02:38:29;46.67;;;31.27;;
64738;SDS011;51175;51.186;0.276;2022-10-17T02:39:02;43.42;;;29.13;;
64738;SDS011;51175;51.186;0.276;2022-10-17T02:39:34;46.00;;;31.60;;
64738;SDS011;51175;51.186;0.276;2022-10-17T02:40:07;46.08;;;31.10;;
64738;SDS011;51175;51.186;0.276;2022-10-17T02:40:39;40.80;;;29.08;;
64738;SDS011;51175;51.186;0.276;2022-10-17T02:41:12;40.58;;;29.63;;
64738;SDS011;51175;51.186;0.276;2022-10-17T02:41:46;44.45;;;30.05;;
64738;SDS011;51175;51.186;0.276;2022-10-17T02:42:18;41.92;;;29.88;;
64738;SDS011;51175;51.186;0.276;2022-10-17T02:42:50;42.00;;;28.83;;
64738;SDS011;51175;51.186;0.276;2022-10-17T02:43:23;44.75;;;29.35;;
64738;SDS011;51175;51.186;0.276;2022-10-17T02:43:54;39.92;;;28.50;;
64738;SDS011;51175;51.186;0.276;2022-10-17T02:44:25;46.60;;;31.10;;
64738;SDS011;51175;51.186;0.276;2022-10-17T02:44:58;41.08;;;29.80;;
64738;SDS011;51175;51.186;0.276;2022-10-17T02:45:30;45.70;;;31.08;;
64738;SDS011;51175;51.186;0.276;2022-10-17T02:46:05;43.70;;;28.70;;
64738;SDS011;51175;51.186;0.276;2022-10-17T02:46:37;37.70;;;28.17;;
64738;SDS011;51175;51.186;0.276;2022-10-17T02:47:12;41.08;;;29.27;;
64738;SDS011;51175;51.186;0.276;2022-10-17T02:48:25;38.67;;;26.98;;
64738;SDS011;51175;51.186;0.276;2022-10-17T02:48:54;45.70;;;27.27;;
64738;SDS011;51175;51.186;0.276;2022-10-17T02:49:33;38.55;;;27.60;;
64738;SDS011;51175;51.186;0.276;2022-10-17T02:50:08;40.20;;;28.15;;
64738;SDS011;51175;51.186;0.276;2022-10-17T02:52:16;39.05;;;26.85;;
64738;SDS011;51175;51.186;0.276;2022-10-17T02:52:54;40.40;;;27.58;;
64738;SDS011;51175;51.186;0.276;2022-10-17T02:53:36;34.95;;;25.00;;
64738;SDS011;51175;51.186;0.276;2022-10-17T02:54:09;36.47;;;25.88;;
64738;SDS011;51175;51.186;0.276;2022-10-17T02:54:50;42.42;;;27.70;;
64738;SDS011;51175;51.186;0.276;2022-10-17T02:55:25;40.63;;;26.60;;
64738;SDS011;51175;51.186;0.276;2022-10-17T02:56:01;36.65;;;24.77;;
64738;SDS011;51175;51.186;0.276;2022-10-17T02:56:42;41.72;;;28.02;;
64738;SDS011;51175;51.186;0.276;2022-10-17T02:57:57;39.17;;;26.17;;
64738;SDS011;51175;51.186;0.276;2022-10-17T02:58:32;38.45;;;27.27;;
64738;SDS011;51175;51.186;0.276;2022-10-17T02:59:04;38.92;;;25.95;;
64738;SDS011;51175;51.186;0.276;2022-10-17T02:59:39;34.88;;;24.73;;
64738;SDS011;51175;51.186;0.276;2022-10-17T03:00:11;40.58;;;26.63;;
64738;SDS011;51175;51.186;0.276;2022-10-17T03:00:43;38.15;;;25.70;;
64738;SDS011;51175;51.186;0.276;2022-10-17T03:01:14;36.67;;;25.88;;
64738;SDS011;51175;51.186;0.276;2022-10-17T03:01:45;37.67;;;26.05;;
64738;SDS011;51175;51.186;0.276;2022-10-17T03:02:15;35.28;;;25.88;;
64738;SDS011;51175;51.186;0.276;2022-10-17T03:02:50;34.03;;;25.67;;
64738;SDS011;51175;51.186;0.276;2022-10-17T03:03:22;34.95;;;25.13;;
64738;SDS011;51175;51.186;0.276;2022-10-17T03:04:11;35.50;;;24.38;;
64738;SDS011;51175;51.186;0.276;2022-10-17T03:04:44;39.15;;;26.02;;
64738;SDS011;51175;51.186;0.276;2022-10-17T03:05:25;37.67;;;24.95;;
64738;SDS011;51175;51.186;0.276;2022-10-17T03:05:57;39.53;;;25.25;;
64738;SDS011;51175;51.186;0.276;2022-10-17T03:06:27;33.85;;;23.55;;
64738;SDS011;51175;51.186;0.276;2022-10-17T03:06:58;37.65;;;24.52;;
64738;SDS011;51175;51.186;0.276;2022-10-17T03:07:28;35.70;;;26.17;;
64738;SDS011;51175;51.186;0.276;2022-10-17T03:07:59;39.20;;;25.35;;
64738;SDS011;51175;51.186;0.276;2022-10-17T03:08:29;37.65;;;24.05;;
64738;SDS011;51175;51.186;0.276;2022-10-17T03:08:59;34.75;;;24.27;;
64738;SDS011;51175;51.186;0.276;2022-10-17T03:09:30;37.17;;;25.67;;
64738;SDS011;51175;51.186;0.276;2022-10-17T03:10:01;34.15;;;23.27;;
64738;SDS011;51175;51.186;0.276;2022-10-17T03:10:31;34.35;;;23.20;;
64738;SDS011;51175;51.186;0.276;2022-10-17T03:11:01;35.80;;;24.00;;
64738;SDS011;51175;51.186;0.276;2022-10-17T03:11:32;34.03;;;23.15;;
64738;SDS011;51175;51.186;0.276;2022-10-17T03:12:03;34.03;;;23.13;;
64738;SDS011;51175;51.186;0.276;2022-10-17T03:12:34;37.08;;;25.38;;
64738;SDS011;51175;51.186;0.276;2022-10-17T03:13:04;34.97;;;23.13;;
64738;SDS011;51175;51.186;0.276;2022-10-17T03:13:34;33.00;;;23.67;;
64738;SDS011;51175;51.186;0.276;2022-10-17T03:14:05;31.23;;;22.27;;
64738;SDS011;51175;51.186;0.276;2022-10-17T03:14:35;30.83;;;22.23;;
64738;SDS011;51175;51.186;0.276;2022-10-17T03:15:06;33.58;;;23.98;;
64738;SDS011;51175;51.186;0.276;2022-10-17T03:15:36;31.73;;;21.90;;
64738;SDS011;51175;51.186;0.276;2022-10-17T03:16:07;32.60;;;22.98;;
64738;SDS011;51175;51.186;0.276;2022-10-17T03:16:37;31.70;;;23.75;;
64738;SDS011;51175;51.186;0.276;2022-10-17T03:17:07;33.20;;;22.17;;
64738;SDS011;51175;51.186;0.276;2022-10-17T03:17:38;32.80;;;21.92;;
64738;SDS011;51175;51.186;0.276;2022-10-17T03:18:08;32.90;;;22.77;;
64738;SDS011;51175;51.186;0.276;2022-10-17T03:18:38;30.67;;;21.67;;
64738;SDS011;51175;51.186;0.276;2022-10-17T03:19:09;34.72;;;25.15;;
64738;SDS011;51175;51.186;0.276;2022-10-17T03:19:39;33.20;;;22.23;;
64738;SDS011;51175;51.186;0.276;2022-10-17T03:20:10;35.33;;;23.67;;
64738;SDS011;51175;51.186;0.276;2022-10-17T03:20:40;31.00;;;21.75;;
64738;SDS011;51175;51.186;0.276;2022-10-17T03:21:10;30.55;;;22.08;;
64738;SDS011;51175;51.186;0.276;2022-10-17T03:21:41;32.60;;;21.63;;
64738;SDS011;51175;51.186;0.276;2022-10-17T03:22:11;33.63;;;21.80;;
64738;SDS011;51175;51.186;0.276;2022-10-17T03:22:41;29.38;;;22.33;;
64738;SDS011;51175;51.186;0.276;2022-10-17T03:23:12;33.03;;;22.50;;
64738;SDS011;51175;51.186;0.276;2022-10-17T03:23:42;34.90;;;22.80;;
64738;SDS011;51175;51.186;0.276;2022-10-17T03:24:13;33.13;;;22.40;;
64738;SDS011;51175;51.186;0.276;2022-10-17T03:24:43;30.63;;;21.05;;
64738;SDS011;51175;51.186;0.276;2022-10-17T03:25:13;29.63;;;21.08;;
64738;SDS011;51175;51.186;0.276;2022-10-17T03:25:44;30.00;;;22.25;;
64738;SDS011;51175;51.186;0.276;2022-10-17T03:26:14;29.88;;;20.27;;
64738;SDS011;51175;51.186;0.276;2022-10-17T03:26:44;31.10;;;21.33;;
64738;SDS011;51175;51.186;0.276;2022-10-17T03:27:15;32.15;;;21.70;;
64738;SDS011;51175;51.186;0.276;2022-10-17T03:27:45;29.88;;;21.20;;
64738;SDS011;51175;51.186;0.276;2022-10-17T03:28:15;33.60;;;21.02;;
64738;SDS011;51175;51.186;0.276;2022-10-17T03:28:46;29.92;;;21.17;;
64738;SDS011;51175;51.186;0.276;2022-10-17T03:29:16;29.92;;;21.20;;
64738;SDS011;51175;51.186;0.276;2022-10-17T03:29:46;30.98;;;20.95;;
64738;SDS011;51175;51.186;0.276;2022-10-17T03:30:17;30.95;;;20.60;;
64738;SDS011;51175;51.186;0.276;2022-10-17T03:30:48;31.33;;;21.42;;
64738;SDS011;51175;51.186;0.276;2022-10-17T03:31:18;30.13;;;21.35;;
64738;SDS011;51175;51.186;0.276;2022-10-17T03:31:48;28.05;;;20.85;;
64738;SDS011;51175;51.186;0.276;2022-10-17T03:32:19;32.25;;;20.83;;
64738;SDS011;51175;51.186;0.276;2022-10-17T03:32:49;27.58;;;19.48;;
64738;SDS011;51175;51.186;0.276;2022-10-17T03:33:19;27.83;;;20.45;;
64738;SDS011;51175;51.186;0.276;2022-10-17T03:33:50;31.40;;;20.52;;
64738;SDS011;51175;51.186;0.276;2022-10-17T03:34:20;27.40;;;19.08;;
64738;SDS011;51175;51.186;0.276;2022-10-17T03:34:50;29.02;;;20.35;;
64738;SDS011;51175;51.186;0.276;2022-10-17T03:35:21;27.20;;;19.45;;
64738;SDS011;51175;51.186;0.276;2022-10-17T03:35:51;28.10;;;20.13;;
64738;SDS011;51175;51.186;0.276;2022-10-17T03:36:21;32.92;;;19.35;;
64738;SDS011;51175;51.186;0.276;2022-10-17T03:36:52;26.98;;;18.90;;
64738;SDS011;51175;51.186;0.276;2022-10-17T03:37:23;29.35;;;19.80;;
64738;SDS011;51175;51.186;0.276;2022-10-17T03:37:54;25.40;;;18.27;;
64738;SDS011;51175;51.186;0.276;2022-10-17T03:38:25;29.88;;;19.50;;
64738;SDS011;51175;51.186;0.276;2022-10-17T03:38:55;27.20;;;19.35;;
64738;SDS011;51175;51.186;0.276;2022-10-17T03:39:25;27.10;;;18.58;;
64738;SDS011;51175;51.186;0.276;2022-10-17T03:39:56;29.00;;;18.13;;
64738;SDS011;51175;51.186;0.276;2022-10-17T03:40:26;28.48;;;20.90;;
64738;SDS011;51175;51.186;0.276;2022-10-17T03:40:56;28.23;;;19.13;;
64738;SDS011;51175;51.186;0.276;2022-10-17T03:41:27;26.60;;;18.70;;
64738;SDS011;51175;51.186;0.276;2022-10-17T03:41:57;27.33;;;17.55;;
64738;SDS011;51175;51.186;0.276;2022-10-17T03:42:27;30.67;;;20.45;;
64738;SDS011;51175;51.186;0.276;2022-10-17T03:42:58;26.38;;;17.77;;
64738;SDS011;51175;51.186;0.276;2022-10-17T03:43:28;24.52;;;17.05;;
64738;SDS011;51175;51.186;0.276;2022-10-17T03:43:59;27.05;;;19.17;;
64738;SDS011;51175;51.186;0.276;2022-10-17T03:44:30;27.20;;;18.45;;
64738;SDS011;51175;51.186;0.276;2022-10-17T03:45:00;28.10;;;17.92;;
64738;SDS011;51175;51.186;0.276;2022-10-17T03:45:30;25.67;;;17.92;;
64738;SDS011;51175;51.186;0.276;2022-10-17T03:46:01;24.30;;;17.38;;
64738;SDS011;51175;51.186;0.276;2022-10-17T03:46:32;24.23;;;17.00;;
64738;SDS011;51175;51.186;0.276;2022-10-17T03:47:03;25.50;;;17.55;;
64738;SDS011;51175;51.186;0.276;2022-10-17T03:47:33;28.60;;;17.90;;
64738;SDS011;51175;51.186;0.276;2022-10-17T03:48:03;24.98;;;16.05;;
64738;SDS011;51175;51.186;0.276;2022-10-17T03:48:34;24.40;;;15.82;;
64738;SDS011;51175;51.186;0.276;2022-10-17T03:49:05;22.50;;;16.88;;
64738;SDS011;51175;51.186;0.276;2022-10-17T03:49:35;24.85;;;15.68;;
64738;SDS011;51175;51.186;0.276;2022-10-17T03:50:05;23.45;;;17.23;;